sensor_id;sensor_type;location;lat;lon;timestamp;temperature;humidity
9699;DHT22;10089;47.876;8.346;2023-03-12T00:01:25;0.20;1.00
9699;DHT22;10089;47.876;8.346;2023-03-12T00:04:00;0.30;1.00
9699;DHT22;10089;47.876;8.346;2023-03-12T00:06:26;0.30;1.00
9699;DHT22;10089;47.876;8.346;2023-03-12T00:08:52;0.30;1.00
9699;DHT22;10089;47.876;8.346;2023-03-12T00:11:19;0.10;1.00
9699;DHT22;10089;47.876;8.346;2023-03-12T00:13:53;0.20;1.00
9699;DHT22;10089;47.876;8.346;2023-03-12T00:16:20;0.20;1.00
9699;DHT22;10089;47.876;8.346;2023-03-12T00:18:50;0.30;1.00
9699;DHT22;10089;47.876;8.346;2023-03-12T00:21:17;0.30;1.00
9699;DHT22;10089;47.876;8.346;2023-03-12T00:23:43;0.40;1.00
9699;DHT22;10089;47.876;8.346;2023-03-12T00:26:12;0.30;1.00
9699;DHT22;10089;47.876;8.346;2023-03-12T00:28:38;0.40;1.00
9699;DHT22;10089;47.876;8.346;2023-03-12T00:33:41;0.30;1.00
9699;DHT22;10089;47.876;8.346;2023-03-12T00:36:08;0.30;1.00
9699;DHT22;10089;47.876;8.346;2023-03-12T00:38:34;0.30;1.00
9699;DHT22;10089;47.876;8.346;2023-03-12T00:41:00;0.30;1.00
9699;DHT22;10089;47.876;8.346;2023-03-12T00:43:25;0.30;1.00
9699;DHT22;10089;47.876;8.346;2023-03-12T00:45:51;0.20;1.00
9699;DHT22;10089;47.876;8.346;2023-03-12T00:48:17;0.30;1.00
9699;DHT22;10089;47.876;8.346;2023-03-12T00:50:42;0.30;1.00
9699;DHT22;10089;47.876;8.346;2023-03-12T00:53:08;0.30;1.00
9699;DHT22;10089;47.876;8.346;2023-03-12T00:55:34;0.30;1.00
9699;DHT22;10089;47.876;8.346;2023-03-12T00:58:00;0.40;1.00
9699;DHT22;10089;47.876;8.346;2023-03-12T01:00:26;0.30;1.00
9699;DHT22;10089;47.876;8.346;2023-03-12T01:02:52;0.40;1.00
9699;DHT22;10089;47.876;8.346;2023-03-12T01:05:18;0.40;1.00
9699;DHT22;10089;47.876;8.346;2023-03-12T01:07:43;0.40;1.00
9699;DHT22;10089;47.876;8.346;2023-03-12T01:10:12;0.50;1.00
9699;DHT22;10089;47.876;8.346;2023-03-12T01:12:38;0.50;1.00
9699;DHT22;10089;47.876;8.346;2023-03-12T01:15:05;0.60;3.20
9699;DHT22;10089;47.876;8.346;2023-03-12T01:17:31;0.60;1.00
9699;DHT22;10089;47.876;8.346;2023-03-12T01:19:56;0.60;1.00
9699;DHT22;10089;47.876;8.346;2023-03-12T01:22:23;0.60;1.00
9699;DHT22;10089;47.876;8.346;2023-03-12T01:24:48;0.60;1.00
9699;DHT22;10089;47.876;8.346;2023-03-12T01:27:14;0.60;1.00
9699;DHT22;10089;47.876;8.346;2023-03-12T01:29:40;0.60;1.00
9699;DHT22;10089;47.876;8.346;2023-03-12T01:32:06;0.60;6.10
9699;DHT22;10089;47.876;8.346;2023-03-12T01:34:31;0.70;52.20
9699;DHT22;10089;47.876;8.346;2023-03-12T01:37:00;0.70;27.80
9699;DHT22;10089;47.876;8.346;2023-03-12T01:39:26;0.60;7.60
9699;DHT22;10089;47.876;8.346;2023-03-12T01:41:52;0.60;1.00
9699;DHT22;10089;47.876;8.346;2023-03-12T01:44:18;0.60;1.00
9699;DHT22;10089;47.876;8.346;2023-03-12T01:46:44;0.60;1.00
9699;DHT22;10089;47.876;8.346;2023-03-12T01:49:25;0.40;1.00
9699;DHT22;10089;47.876;8.346;2023-03-12T01:54:31;0.30;1.00
9699;DHT22;10089;47.876;8.346;2023-03-12T01:56:58;-0.90;25.20
9699;DHT22;10089;47.876;8.346;2023-03-12T01:59:41;0.00;99.90
9699;DHT22;10089;47.876;8.346;2023-03-12T02:02:09;-0.20;99.90
9699;DHT22;10089;47.876;8.346;2023-03-12T02:04:35;-0.30;99.90
9699;DHT22;10089;47.876;8.346;2023-03-12T02:07:06;-0.40;99.90
9699;DHT22;10089;47.876;8.346;2023-03-12T02:09:35;-0.40;99.90
9699;DHT22;10089;47.876;8.346;2023-03-12T02:12:02;-0.30;99.90
9699;DHT22;10089;47.876;8.346;2023-03-12T02:14:28;-0.10;99.90
9699;DHT22;10089;47.876;8.346;2023-03-12T02:16:54;-0.10;99.90
9699;DHT22;10089;47.876;8.346;2023-03-12T02:22:14;0.00;99.90
9699;DHT22;10089;47.876;8.346;2023-03-12T02:24:55;0.00;99.90
9699;DHT22;10089;47.876;8.346;2023-03-12T02:27:23;0.10;99.90
9699;DHT22;10089;47.876;8.346;2023-03-12T02:29:49;0.10;99.90
9699;DHT22;10089;47.876;8.346;2023-03-12T02:32:27;0.20;99.90
9699;DHT22;10089;47.876;8.346;2023-03-12T02:34:55;0.20;99.90
9699;DHT22;10089;47.876;8.346;2023-03-12T02:37:21;0.20;99.90
9699;DHT22;10089;47.876;8.346;2023-03-12T02:39:54;0.10;99.90
9699;DHT22;10089;47.876;8.346;2023-03-12T02:42:21;0.10;99.90
9699;DHT22;10089;47.876;8.346;2023-03-12T02:44:48;0.10;99.90
9699;DHT22;10089;47.876;8.346;2023-03-12T02:47:14;0.10;99.90
9699;DHT22;10089;47.876;8.346;2023-03-12T02:49:40;0.10;99.90
9699;DHT22;10089;47.876;8.346;2023-03-12T02:52:05;0.20;99.90
9699;DHT22;10089;47.876;8.346;2023-03-12T02:54:31;0.10;99.90
9699;DHT22;10089;47.876;8.346;2023-03-12T02:56:57;0.10;99.90
9699;DHT22;10089;47.876;8.346;2023-03-12T02:59:23;0.10;99.90
9699;DHT22;10089;47.876;8.346;2023-03-12T03:01:53;0.10;99.90
9699;DHT22;10089;47.876;8.346;2023-03-12T03:04:19;0.20;99.90
9699;DHT22;10089;47.876;8.346;2023-03-12T03:06:45;0.20;99.90
9699;DHT22;10089;47.876;8.346;2023-03-12T03:09:12;0.20;99.90
9699;DHT22;10089;47.876;8.346;2023-03-12T03:11:38;0.50;99.90
9699;DHT22;10089;47.876;8.346;2023-03-12T03:14:04;0.40;99.90
9699;DHT22;10089;47.876;8.346;2023-03-12T03:16:31;0.50;99.90
9699;DHT22;10089;47.876;8.346;2023-03-12T03:18:57;0.40;99.90
9699;DHT22;10089;47.876;8.346;2023-03-12T03:21:23;0.30;99.90
9699;DHT22;10089;47.876;8.346;2023-03-12T03:23:50;-0.20;99.90
9699;DHT22;10089;47.876;8.346;2023-03-12T03:26:19;-0.20;99.90
9699;DHT22;10089;47.876;8.346;2023-03-12T03:28:44;-0.50;99.90
9699;DHT22;10089;47.876;8.346;2023-03-12T03:31:10;-0.70;99.90
9699;DHT22;10089;47.876;8.346;2023-03-12T03:33:37;-0.70;99.90
9699;DHT22;10089;47.876;8.346;2023-03-12T03:36:05;-0.50;99.90
9699;DHT22;10089;47.876;8.346;2023-03-12T03:38:32;-0.50;99.90
9699;DHT22;10089;47.876;8.346;2023-03-12T03:40:57;-0.40;99.90
9699;DHT22;10089;47.876;8.346;2023-03-12T03:43:23;-0.40;99.90
9699;DHT22;10089;47.876;8.346;2023-03-12T03:46:03;-0.30;99.90
9699;DHT22;10089;47.876;8.346;2023-03-12T03:48:29;-0.30;99.90
9699;DHT22;10089;47.876;8.346;2023-03-12T03:51:02;-0.10;99.90
9699;DHT22;10089;47.876;8.346;2023-03-12T03:53:28;-0.10;99.90
9699;DHT22;10089;47.876;8.346;2023-03-12T03:55:54;-0.20;99.90
9699;DHT22;10089;47.876;8.346;2023-03-12T03:58:20;-0.20;99.90
9699;DHT22;10089;47.876;8.346;2023-03-12T04:00:45;-0.20;99.90
9699;DHT22;10089;47.876;8.346;2023-03-12T04:03:11;-0.10;99.90
9699;DHT22;10089;47.876;8.346;2023-03-12T04:05:38;-0.20;99.90
9699;DHT22;10089;47.876;8.346;2023-03-12T04:08:04;-0.10;99.90
9699;DHT22;10089;47.876;8.346;2023-03-12T04:10:30;0.00;99.90
9699;DHT22;10089;47.876;8.346;2023-03-12T04:12:56;0.00;99.90
9699;DHT22;10089;47.876;8.346;2023-03-12T04:15:22;0.00;99.90
9699;DHT22;10089;47.876;8.346;2023-03-12T04:17:48;0.00;99.90
9699;DHT22;10089;47.876;8.346;2023-03-12T04:20:14;0.00;99.90
9699;DHT22;10089;47.876;8.346;2023-03-12T04:22:40;0.00;99.90
9699;DHT22;10089;47.876;8.346;2023-03-12T04:25:06;0.00;99.90
9699;DHT22;10089;47.876;8.346;2023-03-12T04:27:33;0.00;99.90
9699;DHT22;10089;47.876;8.346;2023-03-12T04:29:59;0.00;99.90
9699;DHT22;10089;47.876;8.346;2023-03-12T04:32:25;0.20;99.90
9699;DHT22;10089;47.876;8.346;2023-03-12T04:34:50;0.30;99.90
9699;DHT22;10089;47.876;8.346;2023-03-12T04:37:16;0.80;99.90
9699;DHT22;10089;47.876;8.346;2023-03-12T04:39:43;1.10;99.90
9699;DHT22;10089;47.876;8.346;2023-03-12T04:42:09;1.70;99.90
9699;DHT22;10089;47.876;8.346;2023-03-12T04:44:35;1.60;99.90
9699;DHT22;10089;47.876;8.346;2023-03-12T04:47:01;1.70;99.90
9699;DHT22;10089;47.876;8.346;2023-03-12T04:49:27;1.70;99.90
9699;DHT22;10089;47.876;8.346;2023-03-12T04:51:53;1.80;99.90
9699;DHT22;10089;47.876;8.346;2023-03-12T04:54:19;1.90;99.90
9699;DHT22;10089;47.876;8.346;2023-03-12T04:56:48;1.90;99.90
9699;DHT22;10089;47.876;8.346;2023-03-12T04:59:19;2.00;99.90
9699;DHT22;10089;47.876;8.346;2023-03-12T05:01:45;2.00;99.90
9699;DHT22;10089;47.876;8.346;2023-03-12T05:04:10;2.00;99.90
9699;DHT22;10089;47.876;8.346;2023-03-12T05:06:36;2.10;99.90
9699;DHT22;10089;47.876;8.346;2023-03-12T05:09:02;2.10;99.90
9699;DHT22;10089;47.876;8.346;2023-03-12T05:11:28;2.10;99.90
9699;DHT22;10089;47.876;8.346;2023-03-12T05:13:54;2.20;99.90
9699;DHT22;10089;47.876;8.346;2023-03-12T05:16:20;2.20;99.90
9699;DHT22;10089;47.876;8.346;2023-03-12T05:18:46;2.20;99.90
9699;DHT22;10089;47.876;8.346;2023-03-12T05:21:16;2.40;99.90
9699;DHT22;10089;47.876;8.346;2023-03-12T05:23:42;2.20;99.90
9699;DHT22;10089;47.876;8.346;2023-03-12T05:26:34;2.00;99.90
9699;DHT22;10089;47.876;8.346;2023-03-12T05:29:01;2.10;99.90
9699;DHT22;10089;47.876;8.346;2023-03-12T05:31:28;2.40;99.90
9699;DHT22;10089;47.876;8.346;2023-03-12T05:33:57;2.10;99.90
9699;DHT22;10089;47.876;8.346;2023-03-12T05:36:24;1.70;99.90
9699;DHT22;10089;47.876;8.346;2023-03-12T05:38:50;1.60;99.90
9699;DHT22;10089;47.876;8.346;2023-03-12T05:41:27;1.70;99.90
9699;DHT22;10089;47.876;8.346;2023-03-12T05:43:54;1.90;99.90
9699;DHT22;10089;47.876;8.346;2023-03-12T05:46:22;2.20;99.90
9699;DHT22;10089;47.876;8.346;2023-03-12T05:48:48;2.40;99.90
9699;DHT22;10089;47.876;8.346;2023-03-12T05:51:14;2.60;99.90
9699;DHT22;10089;47.876;8.346;2023-03-12T05:53:40;2.70;99.90
9699;DHT22;10089;47.876;8.346;2023-03-12T05:56:09;2.80;99.90
9699;DHT22;10089;47.876;8.346;2023-03-12T05:58:35;2.90;99.90
9699;DHT22;10089;47.876;8.346;2023-03-12T06:01:09;2.80;99.90
9699;DHT22;10089;47.876;8.346;2023-03-12T06:03:35;2.80;99.90
9699;DHT22;10089;47.876;8.346;2023-03-12T06:06:01;2.80;99.90
9699;DHT22;10089;47.876;8.346;2023-03-12T06:08:26;2.80;99.90
9699;DHT22;10089;47.876;8.346;2023-03-12T06:10:52;2.90;99.90
9699;DHT22;10089;47.876;8.346;2023-03-12T06:13:22;2.90;99.90
9699;DHT22;10089;47.876;8.346;2023-03-12T06:15:48;2.90;99.90
9699;DHT22;10089;47.876;8.346;2023-03-12T06:18:14;2.90;99.90
9699;DHT22;10089;47.876;8.346;2023-03-12T06:20:40;2.90;99.90
9699;DHT22;10089;47.876;8.346;2023-03-12T06:23:06;3.00;99.90
9699;DHT22;10089;47.876;8.346;2023-03-12T06:25:32;3.00;99.90
9699;DHT22;10089;47.876;8.346;2023-03-12T06:27:58;3.10;99.90
9699;DHT22;10089;47.876;8.346;2023-03-12T06:30:23;3.40;99.90
9699;DHT22;10089;47.876;8.346;2023-03-12T06:32:49;3.40;99.90
9699;DHT22;10089;47.876;8.346;2023-03-12T06:35:15;3.50;99.90
9699;DHT22;10089;47.876;8.346;2023-03-12T06:37:40;3.70;99.90
9699;DHT22;10089;47.876;8.346;2023-03-12T06:40:06;3.70;99.90
9699;DHT22;10089;47.876;8.346;2023-03-12T06:42:35;3.70;99.90
9699;DHT22;10089;47.876;8.346;2023-03-12T06:45:01;3.70;99.90
9699;DHT22;10089;47.876;8.346;2023-03-12T06:47:26;3.80;99.90
9699;DHT22;10089;47.876;8.346;2023-03-12T06:49:52;3.80;99.90
9699;DHT22;10089;47.876;8.346;2023-03-12T06:52:18;3.80;99.90
9699;DHT22;10089;47.876;8.346;2023-03-12T06:54:43;3.80;99.90
9699;DHT22;10089;47.876;8.346;2023-03-12T06:57:09;3.80;99.90
9699;DHT22;10089;47.876;8.346;2023-03-12T06:59:35;3.80;99.90
9699;DHT22;10089;47.876;8.346;2023-03-12T07:02:01;3.80;99.90
9699;DHT22;10089;47.876;8.346;2023-03-12T07:04:26;3.90;99.90
9699;DHT22;10089;47.876;8.346;2023-03-12T07:06:52;3.90;99.90
9699;DHT22;10089;47.876;8.346;2023-03-12T07:09:18;4.00;99.90
9699;DHT22;10089;47.876;8.346;2023-03-12T07:11:44;4.00;99.90
9699;DHT22;10089;47.876;8.346;2023-03-12T07:14:10;4.10;99.90
9699;DHT22;10089;47.876;8.346;2023-03-12T07:16:36;4.20;99.90
9699;DHT22;10089;47.876;8.346;2023-03-12T07:19:02;4.30;99.90
9699;DHT22;10089;47.876;8.346;2023-03-12T07:21:28;4.40;99.90
9699;DHT22;10089;47.876;8.346;2023-03-12T07:23:56;4.40;99.90
9699;DHT22;10089;47.876;8.346;2023-03-12T07:26:21;4.40;99.90
9699;DHT22;10089;47.876;8.346;2023-03-12T07:28:47;4.60;99.90
9699;DHT22;10089;47.876;8.346;2023-03-12T07:31:13;4.60;99.90
9699;DHT22;10089;47.876;8.346;2023-03-12T07:33:39;4.70;99.90
9699;DHT22;10089;47.876;8.346;2023-03-12T07:36:05;4.70;99.90
9699;DHT22;10089;47.876;8.346;2023-03-12T07:38:31;4.80;99.90
9699;DHT22;10089;47.876;8.346;2023-03-12T07:40:57;4.80;99.90
9699;DHT22;10089;47.876;8.346;2023-03-12T07:43:23;4.90;99.90
9699;DHT22;10089;47.876;8.346;2023-03-12T07:45:50;4.90;99.90
9699;DHT22;10089;47.876;8.346;2023-03-12T07:48:15;5.00;99.90
9699;DHT22;10089;47.876;8.346;2023-03-12T07:50:43;5.00;99.90
9699;DHT22;10089;47.876;8.346;2023-03-12T07:53:09;5.20;99.90
9699;DHT22;10089;47.876;8.346;2023-03-12T07:55:35;5.20;99.90
9699;DHT22;10089;47.876;8.346;2023-03-12T07:58:01;5.40;99.90
9699;DHT22;10089;47.876;8.346;2023-03-12T08:00:27;5.30;99.90
9699;DHT22;10089;47.876;8.346;2023-03-12T08:02:53;5.30;99.90
9699;DHT22;10089;47.876;8.346;2023-03-12T08:05:19;5.40;99.90
9699;DHT22;10089;47.876;8.346;2023-03-12T08:07:45;5.40;99.90
9699;DHT22;10089;47.876;8.346;2023-03-12T08:10:11;5.40;99.90
9699;DHT22;10089;47.876;8.346;2023-03-12T08:12:37;5.60;99.90
9699;DHT22;10089;47.876;8.346;2023-03-12T08:15:04;5.70;99.90
9699;DHT22;10089;47.876;8.346;2023-03-12T08:17:30;5.70;99.90
9699;DHT22;10089;47.876;8.346;2023-03-12T08:19:56;5.70;99.90
9699;DHT22;10089;47.876;8.346;2023-03-12T08:22:22;5.70;99.90
9699;DHT22;10089;47.876;8.346;2023-03-12T08:24:48;5.70;99.90
9699;DHT22;10089;47.876;8.346;2023-03-12T08:27:13;5.70;99.90
9699;DHT22;10089;47.876;8.346;2023-03-12T08:29:39;5.70;99.90
9699;DHT22;10089;47.876;8.346;2023-03-12T08:32:06;5.80;99.90
9699;DHT22;10089;47.876;8.346;2023-03-12T08:34:34;5.70;99.90
9699;DHT22;10089;47.876;8.346;2023-03-12T08:37:00;6.00;99.90
9699;DHT22;10089;47.876;8.346;2023-03-12T08:39:25;5.90;99.90
9699;DHT22;10089;47.876;8.346;2023-03-12T08:41:51;6.20;99.90
9699;DHT22;10089;47.876;8.346;2023-03-12T08:44:21;6.20;99.90
9699;DHT22;10089;47.876;8.346;2023-03-12T08:46:47;6.30;99.90
9699;DHT22;10089;47.876;8.346;2023-03-12T08:49:12;6.30;99.90
9699;DHT22;10089;47.876;8.346;2023-03-12T08:51:38;6.30;99.90
9699;DHT22;10089;47.876;8.346;2023-03-12T08:54:04;6.30;99.90
9699;DHT22;10089;47.876;8.346;2023-03-12T08:56:31;6.40;99.90
9699;DHT22;10089;47.876;8.346;2023-03-12T08:58:59;6.50;99.90
9699;DHT22;10089;47.876;8.346;2023-03-12T09:01:32;6.90;99.90
9699;DHT22;10089;47.876;8.346;2023-03-12T09:03:58;6.90;99.90
9699;DHT22;10089;47.876;8.346;2023-03-12T09:06:24;6.90;99.90
9699;DHT22;10089;47.876;8.346;2023-03-12T09:08:50;7.00;99.90
9699;DHT22;10089;47.876;8.346;2023-03-12T09:11:16;7.20;99.90
9699;DHT22;10089;47.876;8.346;2023-03-12T09:13:42;7.30;99.90
9699;DHT22;10089;47.876;8.346;2023-03-12T09:16:08;7.40;99.90
9699;DHT22;10089;47.876;8.346;2023-03-12T09:18:34;7.30;99.90
9699;DHT22;10089;47.876;8.346;2023-03-12T09:21:00;7.30;99.90
9699;DHT22;10089;47.876;8.346;2023-03-12T09:23:27;7.20;99.90
9699;DHT22;10089;47.876;8.346;2023-03-12T09:25:53;7.10;99.90
9699;DHT22;10089;47.876;8.346;2023-03-12T09:28:19;7.10;99.90
9699;DHT22;10089;47.876;8.346;2023-03-12T09:30:45;7.10;99.90
9699;DHT22;10089;47.876;8.346;2023-03-12T09:33:11;7.00;99.90
9699;DHT22;10089;47.876;8.346;2023-03-12T09:35:38;6.90;99.90
9699;DHT22;10089;47.876;8.346;2023-03-12T09:38:03;6.90;99.90
9699;DHT22;10089;47.876;8.346;2023-03-12T09:40:31;6.90;99.90
9699;DHT22;10089;47.876;8.346;2023-03-12T09:43:04;7.00;99.90
9699;DHT22;10089;47.876;8.346;2023-03-12T09:45:40;7.10;99.90
9699;DHT22;10089;47.876;8.346;2023-03-12T09:48:21;7.10;99.90
9699;DHT22;10089;47.876;8.346;2023-03-12T09:50:50;7.10;99.90
9699;DHT22;10089;47.876;8.346;2023-03-12T09:53:32;7.10;99.90
9699;DHT22;10089;47.876;8.346;2023-03-12T09:56:02;7.10;99.90
9699;DHT22;10089;47.876;8.346;2023-03-12T09:58:35;7.10;99.90
9699;DHT22;10089;47.876;8.346;2023-03-12T10:04:19;7.20;99.90
9699;DHT22;10089;47.876;8.346;2023-03-12T10:12:26;7.10;99.90
9699;DHT22;10089;47.876;8.346;2023-03-12T10:15:26;7.10;99.90
9699;DHT22;10089;47.876;8.346;2023-03-12T10:18:03;7.10;99.90
9699;DHT22;10089;47.876;8.346;2023-03-12T10:26:09;7.00;99.90
9699;DHT22;10089;47.876;8.346;2023-03-12T10:28:48;7.10;99.90
9699;DHT22;10089;47.876;8.346;2023-03-12T10:31:27;7.20;99.90
9699;DHT22;10089;47.876;8.346;2023-03-12T10:33:58;7.10;99.90
9699;DHT22;10089;47.876;8.346;2023-03-12T10:36:27;7.10;99.90
9699;DHT22;10089;47.876;8.346;2023-03-12T10:38:54;7.10;99.90
9699;DHT22;10089;47.876;8.346;2023-03-12T10:41:26;7.20;99.90
9699;DHT22;10089;47.876;8.346;2023-03-12T10:43:54;7.30;99.90
9699;DHT22;10089;47.876;8.346;2023-03-12T10:56:53;7.80;99.90
9699;DHT22;10089;47.876;8.346;2023-03-12T10:59:21;7.90;99.90
9699;DHT22;10089;47.876;8.346;2023-03-12T11:01:49;8.00;99.90
9699;DHT22;10089;47.876;8.346;2023-03-12T11:10:16;7.90;99.90
9699;DHT22;10089;47.876;8.346;2023-03-12T11:12:58;7.80;99.90
9699;DHT22;10089;47.876;8.346;2023-03-12T11:15:28;7.80;99.90
9699;DHT22;10089;47.876;8.346;2023-03-12T11:18:26;7.80;99.90
9699;DHT22;10089;47.876;8.346;2023-03-12T11:21:13;8.10;99.90
9699;DHT22;10089;47.876;8.346;2023-03-12T11:26:37;8.30;99.90
9699;DHT22;10089;47.876;8.346;2023-03-12T11:29:17;8.40;99.90
9699;DHT22;10089;47.876;8.346;2023-03-12T11:34:25;8.70;99.90
9699;DHT22;10089;47.876;8.346;2023-03-12T11:36:58;8.90;6.00
9699;DHT22;10089;47.876;8.346;2023-03-12T11:45:03;9.00;97.20
9699;DHT22;10089;47.876;8.346;2023-03-12T12:09:57;8.70;40.50
9699;DHT22;10089;47.876;8.346;2023-03-12T12:12:49;8.50;1.00
9699;DHT22;10089;47.876;8.346;2023-03-12T12:18:44;8.30;99.90
9699;DHT22;10089;47.876;8.346;2023-03-12T12:21:53;8.20;99.90
9699;DHT22;10089;47.876;8.346;2023-03-12T12:32:16;8.80;99.90
9699;DHT22;10089;47.876;8.346;2023-03-12T12:35:17;8.90;1.00
9699;DHT22;10089;47.876;8.346;2023-03-12T12:37:57;9.10;75.70
9699;DHT22;10089;47.876;8.346;2023-03-12T12:40:35;9.00;1.00
9699;DHT22;10089;47.876;8.346;2023-03-12T12:45:30;8.80;1.00
9699;DHT22;10089;47.876;8.346;2023-03-12T12:48:06;8.60;1.00
9699;DHT22;10089;47.876;8.346;2023-03-12T12:50:37;8.50;1.00
9699;DHT22;10089;47.876;8.346;2023-03-12T12:53:24;8.40;1.00
9699;DHT22;10089;47.876;8.346;2023-03-12T13:01:04;9.70;1.00
9699;DHT22;10089;47.876;8.346;2023-03-12T13:03:30;10.00;1.00
9699;DHT22;10089;47.876;8.346;2023-03-12T13:06:05;10.20;99.90
9699;DHT22;10089;47.876;8.346;2023-03-12T13:13:45;9.40;1.00
9699;DHT22;10089;47.876;8.346;2023-03-12T13:16:39;9.30;99.90
9699;DHT22;10089;47.876;8.346;2023-03-12T13:27:23;9.10;1.00
9699;DHT22;10089;47.876;8.346;2023-03-12T13:29:50;9.00;1.00
9699;DHT22;10089;47.876;8.346;2023-03-12T13:35:26;8.10;99.90
9699;DHT22;10089;47.876;8.346;2023-03-12T13:43:11;8.70;99.90
9699;DHT22;10089;47.876;8.346;2023-03-12T13:45:59;8.50;99.90
9699;DHT22;10089;47.876;8.346;2023-03-12T13:48:26;8.50;99.90
9699;DHT22;10089;47.876;8.346;2023-03-12T13:51:16;8.40;99.90
9699;DHT22;10089;47.876;8.346;2023-03-12T13:53:47;8.30;99.90
9699;DHT22;10089;47.876;8.346;2023-03-12T13:56:17;8.40;99.90
9699;DHT22;10089;47.876;8.346;2023-03-12T13:59:13;8.40;99.90
9699;DHT22;10089;47.876;8.346;2023-03-12T14:01:36;8.40;1.00
9699;DHT22;10089;47.876;8.346;2023-03-12T14:04:09;8.20;1.00
9699;DHT22;10089;47.876;8.346;2023-03-12T14:10:18;8.00;1.00
9699;DHT22;10089;47.876;8.346;2023-03-12T14:18:51;8.50;1.00
9699;DHT22;10089;47.876;8.346;2023-03-12T14:21:19;8.50;1.00
9699;DHT22;10089;47.876;8.346;2023-03-12T14:23:51;8.30;1.00
9699;DHT22;10089;47.876;8.346;2023-03-12T14:26:25;8.30;1.00
9699;DHT22;10089;47.876;8.346;2023-03-12T14:29:19;8.30;1.00
9699;DHT22;10089;47.876;8.346;2023-03-12T14:31:46;8.30;1.00
9699;DHT22;10089;47.876;8.346;2023-03-12T14:34:17;8.40;1.00
9699;DHT22;10089;47.876;8.346;2023-03-12T14:39:48;8.20;1.00
9699;DHT22;10089;47.876;8.346;2023-03-12T14:42:25;8.20;1.00
9699;DHT22;10089;47.876;8.346;2023-03-12T14:47:52;8.10;1.00
9699;DHT22;10089;47.876;8.346;2023-03-12T14:50:27;8.20;1.00
9699;DHT22;10089;47.876;8.346;2023-03-12T14:52:54;8.20;1.00
9699;DHT22;10089;47.876;8.346;2023-03-12T14:55:24;8.20;1.00
9699;DHT22;10089;47.876;8.346;2023-03-12T14:58:06;8.20;1.00
9699;DHT22;10089;47.876;8.346;2023-03-12T15:00:38;8.40;1.00
9699;DHT22;10089;47.876;8.346;2023-03-12T15:03:14;8.50;1.00
9699;DHT22;10089;47.876;8.346;2023-03-12T15:05:48;8.50;1.00
9699;DHT22;10089;47.876;8.346;2023-03-12T15:08:14;8.50;1.00
9699;DHT22;10089;47.876;8.346;2023-03-12T15:10:56;8.50;1.00
9699;DHT22;10089;47.876;8.346;2023-03-12T15:13:23;8.40;1.00
9699;DHT22;10089;47.876;8.346;2023-03-12T15:15:52;8.40;1.00
9699;DHT22;10089;47.876;8.346;2023-03-12T15:18:20;8.40;99.90
9699;DHT22;10089;47.876;8.346;2023-03-12T15:20:48;8.40;99.90
9699;DHT22;10089;47.876;8.346;2023-03-12T15:23:16;8.40;99.90
9699;DHT22;10089;47.876;8.346;2023-03-12T15:25:43;8.40;1.00
9699;DHT22;10089;47.876;8.346;2023-03-12T15:30:40;8.30;1.00
9699;DHT22;10089;47.876;8.346;2023-03-12T15:33:20;8.30;99.90
9699;DHT22;10089;47.876;8.346;2023-03-12T15:38:32;8.20;1.00
9699;DHT22;10089;47.876;8.346;2023-03-12T15:41:05;8.10;1.00
9699;DHT22;10089;47.876;8.346;2023-03-12T15:43:32;8.10;1.00
9699;DHT22;10089;47.876;8.346;2023-03-12T15:46:00;8.10;1.00
9699;DHT22;10089;47.876;8.346;2023-03-12T15:48:32;8.10;1.00
9699;DHT22;10089;47.876;8.346;2023-03-12T15:50:59;8.10;99.90
9699;DHT22;10089;47.876;8.346;2023-03-12T15:53:31;8.00;1.00
9699;DHT22;10089;47.876;8.346;2023-03-12T15:56:04;8.00;1.00
9699;DHT22;10089;47.876;8.346;2023-03-12T15:58:35;8.00;1.00
9699;DHT22;10089;47.876;8.346;2023-03-12T16:01:15;8.00;99.90
9699;DHT22;10089;47.876;8.346;2023-03-12T16:03:47;8.00;1.00
9699;DHT22;10089;47.876;8.346;2023-03-12T16:06:18;8.00;1.00
9699;DHT22;10089;47.876;8.346;2023-03-12T16:08:59;8.00;1.00
9699;DHT22;10089;47.876;8.346;2023-03-12T16:11:30;8.00;1.00
9699;DHT22;10089;47.876;8.346;2023-03-12T16:14:28;8.00;1.00
9699;DHT22;10089;47.876;8.346;2023-03-12T16:17:00;8.00;1.00
9699;DHT22;10089;47.876;8.346;2023-03-12T16:19:28;8.00;1.00
9699;DHT22;10089;47.876;8.346;2023-03-12T16:22:08;7.90;1.00
9699;DHT22;10089;47.876;8.346;2023-03-12T16:24:36;7.90;1.00
9699;DHT22;10089;47.876;8.346;2023-03-12T16:27:02;7.90;1.00
9699;DHT22;10089;47.876;8.346;2023-03-12T16:29:39;7.90;1.00
9699;DHT22;10089;47.876;8.346;2023-03-12T16:32:10;7.80;1.00
9699;DHT22;10089;47.876;8.346;2023-03-12T16:34:36;7.80;1.00
9699;DHT22;10089;47.876;8.346;2023-03-12T16:37:02;7.80;1.00
9699;DHT22;10089;47.876;8.346;2023-03-12T16:39:28;7.70;1.00
9699;DHT22;10089;47.876;8.346;2023-03-12T16:41:58;7.70;1.00
9699;DHT22;10089;47.876;8.346;2023-03-12T16:44:25;7.60;1.00
9699;DHT22;10089;47.876;8.346;2023-03-12T16:46:52;7.60;1.00
9699;DHT22;10089;47.876;8.346;2023-03-12T16:49:18;7.60;1.00
9699;DHT22;10089;47.876;8.346;2023-03-12T16:51:45;7.50;1.00
9699;DHT22;10089;47.876;8.346;2023-03-12T16:54:12;7.50;1.00
9699;DHT22;10089;47.876;8.346;2023-03-12T16:56:40;7.40;1.00
9699;DHT22;10089;47.876;8.346;2023-03-12T16:59:16;7.40;1.00
9699;DHT22;10089;47.876;8.346;2023-03-12T17:01:46;7.30;1.00
9699;DHT22;10089;47.876;8.346;2023-03-12T17:04:11;7.30;1.00
9699;DHT22;10089;47.876;8.346;2023-03-12T17:06:37;7.30;1.00
9699;DHT22;10089;47.876;8.346;2023-03-12T17:09:04;7.20;1.00
9699;DHT22;10089;47.876;8.346;2023-03-12T17:11:33;7.30;1.00
9699;DHT22;10089;47.876;8.346;2023-03-12T17:14:02;7.20;1.00
9699;DHT22;10089;47.876;8.346;2023-03-12T17:16:29;7.10;1.00
9699;DHT22;10089;47.876;8.346;2023-03-12T17:18:55;7.10;1.00
9699;DHT22;10089;47.876;8.346;2023-03-12T17:21:21;7.00;1.00
9699;DHT22;10089;47.876;8.346;2023-03-12T17:23:48;6.90;1.00
9699;DHT22;10089;47.876;8.346;2023-03-12T17:26:18;6.90;1.00
9699;DHT22;10089;47.876;8.346;2023-03-12T17:28:56;6.90;1.00
9699;DHT22;10089;47.876;8.346;2023-03-12T17:31:22;6.90;1.00
9699;DHT22;10089;47.876;8.346;2023-03-12T17:33:49;6.80;17.40
9699;DHT22;10089;47.876;8.346;2023-03-12T17:36:15;6.80;28.50
9699;DHT22;10089;47.876;8.346;2023-03-12T17:38:41;6.90;21.80
9699;DHT22;10089;47.876;8.346;2023-03-12T17:41:06;6.80;46.10
9699;DHT22;10089;47.876;8.346;2023-03-12T17:43:33;6.80;99.90
9699;DHT22;10089;47.876;8.346;2023-03-12T17:46:07;6.80;99.90
9699;DHT22;10089;47.876;8.346;2023-03-12T17:48:33;6.80;99.90
9699;DHT22;10089;47.876;8.346;2023-03-12T17:51:05;6.80;99.90
9699;DHT22;10089;47.876;8.346;2023-03-12T17:53:35;6.70;99.90
9699;DHT22;10089;47.876;8.346;2023-03-12T17:56:01;6.70;99.90
9699;DHT22;10089;47.876;8.346;2023-03-12T17:58:27;6.70;99.90
9699;DHT22;10089;47.876;8.346;2023-03-12T18:01:00;6.70;99.90
9699;DHT22;10089;47.876;8.346;2023-03-12T18:03:25;6.70;99.90
9699;DHT22;10089;47.876;8.346;2023-03-12T18:05:51;6.70;99.90
9699;DHT22;10089;47.876;8.346;2023-03-12T18:08:17;6.70;99.90
9699;DHT22;10089;47.876;8.346;2023-03-12T18:10:43;6.70;99.90
9699;DHT22;10089;47.876;8.346;2023-03-12T18:13:09;6.70;99.90
9699;DHT22;10089;47.876;8.346;2023-03-12T18:15:35;6.70;99.90
9699;DHT22;10089;47.876;8.346;2023-03-12T18:18:01;6.70;99.90
9699;DHT22;10089;47.876;8.346;2023-03-12T18:20:28;6.60;99.90
9699;DHT22;10089;47.876;8.346;2023-03-12T18:22:54;6.80;99.90
9699;DHT22;10089;47.876;8.346;2023-03-12T18:25:21;6.90;99.90
9699;DHT22;10089;47.876;8.346;2023-03-12T18:27:46;6.70;99.90
9699;DHT22;10089;47.876;8.346;2023-03-12T18:30:12;6.50;99.90